createdAt,value
2017-07-08T00:01:29.317Z,26.60
2017-07-08T00:04:01.763Z,28.50
2017-07-08T00:06:34.077Z,28.10
2017-07-08T00:09:06.475Z,28.20
2017-07-08T00:11:38.886Z,26.80
2017-07-08T00:14:11.229Z,28.10
2017-07-08T00:16:43.620Z,28.90
2017-07-08T00:19:16.019Z,27.93
2017-07-08T00:21:49.204Z,29.70
2017-07-08T00:24:22.086Z,28.90
2017-07-08T00:26:54.242Z,30.43
2017-07-08T00:29:26.580Z,29.97
2017-07-08T00:31:59.070Z,30.23
2017-07-08T00:34:31.519Z,32.57
2017-07-08T00:37:03.821Z,32.70
2017-07-08T00:39:36.274Z,33.70
2017-07-08T00:42:08.757Z,32.93
2017-07-08T00:44:41.033Z,30.53
2017-07-08T00:47:13.400Z,32.73
2017-07-08T00:49:45.913Z,33.23
2017-07-08T00:52:18.435Z,31.33
2017-07-08T00:54:51.283Z,29.53
2017-07-08T00:57:24.263Z,30.53
2017-07-08T00:59:56.633Z,32.27
2017-07-08T01:02:29.021Z,29.40
2017-07-08T01:05:01.485Z,29.00
2017-07-08T01:07:33.873Z,31.37
2017-07-08T01:10:06.212Z,34.03
2017-07-08T01:12:38.741Z,32.50
2017-07-08T01:15:11.054Z,35.17
2017-07-08T01:17:43.563Z,34.37
2017-07-08T01:20:15.817Z,33.77
2017-07-08T01:22:48.220Z,34.83
2017-07-08T01:25:20.666Z,34.90
2017-07-08T01:27:53.048Z,36.30
2017-07-08T01:30:25.550Z,38.07
2017-07-08T01:32:58.228Z,39.60
2017-07-08T01:35:31.364Z,39.40
2017-07-08T01:38:04.090Z,35.30
2017-07-08T01:40:36.651Z,36.87
2017-07-08T01:43:09.956Z,37.37
2017-07-08T01:45:42.644Z,39.10
2017-07-08T01:48:14.807Z,39.60
2017-07-08T01:50:47.253Z,40.20
2017-07-08T01:53:19.654Z,39.87
2017-07-08T01:55:59.158Z,39.50
2017-07-08T01:58:31.572Z,41.30
2017-07-08T02:01:03.976Z,38.97
2017-07-08T02:03:36.447Z,39.53
2017-07-08T02:06:08.849Z,38.80
2017-07-08T02:08:41.251Z,40.30
2017-07-08T02:11:13.624Z,40.07
2017-07-08T02:13:45.997Z,39.37
2017-07-08T02:16:18.329Z,41.70
2017-07-08T02:18:50.841Z,41.33
2017-07-08T02:21:24.570Z,40.47
2017-07-08T02:23:57.720Z,42.57
2017-07-08T02:26:30.065Z,44.10
2017-07-08T02:29:02.479Z,43.17
2017-07-08T02:31:34.846Z,45.50
2017-07-08T02:34:07.359Z,47.53
2017-07-08T02:36:39.644Z,46.00
2017-07-08T02:39:12.080Z,48.17
2017-07-08T02:41:44.472Z,48.90
2017-07-08T02:44:16.834Z,45.83
2017-07-08T02:46:49.209Z,49.03
2017-07-08T02:49:21.706Z,46.73
2017-07-08T02:51:54.198Z,47.20
2017-07-08T02:54:26.490Z,45.17
2017-07-08T02:56:58.990Z,43.77
2017-07-08T02:59:31.244Z,46.07
2017-07-08T03:02:03.733Z,44.87
2017-07-08T03:04:36.352Z,43.40
2017-07-08T03:07:09.327Z,44.10
2017-07-08T03:09:41.877Z,43.67
2017-07-08T03:12:14.369Z,48.47
2017-07-08T03:14:47.085Z,48.93
2017-07-08T03:17:19.448Z,52.40
2017-07-08T03:19:51.503Z,55.03
2017-07-08T03:22:23.952Z,54.50
2017-07-08T03:24:56.455Z,53.53
2017-07-08T03:27:28.944Z,55.97
2017-07-08T03:30:01.244Z,56.43
2017-07-08T03:32:33.533Z,55.63
2017-07-08T03:35:06.262Z,59.53
2017-07-08T03:37:38.362Z,58.50
2017-07-08T03:40:10.882Z,56.60
2017-07-08T03:42:44.227Z,55.90
2017-07-08T03:45:17.453Z,57.70
2017-07-08T03:47:49.388Z,54.77
2017-07-08T03:50:21.862Z,55.73
2017-07-08T03:52:54.200Z,54.60
2017-07-08T03:55:26.434Z,56.00
2017-07-08T03:57:58.854Z,54.90
2017-07-08T04:00:31.373Z,54.43
2017-07-08T04:03:03.693Z,54.67
2017-07-08T04:05:36.129Z,53.10
2017-07-08T04:08:08.516Z,52.67
2017-07-08T04:10:40.946Z,53.77
2017-07-08T04:13:13.413Z,51.00
2017-07-08T04:15:45.884Z,53.27
2017-07-08T04:18:18.133Z,52.23
2017-07-08T04:20:50.518Z,53.40
2017-07-08T04:23:24.018Z,55.17
2017-07-08T04:25:56.603Z,51.80
2017-07-08T04:28:28.769Z,50.00
2017-07-08T04:31:01.201Z,52.50
2017-07-08T04:33:33.579Z,50.27
2017-07-08T04:36:05.810Z,51.40
2017-07-08T04:38:39.563Z,50.03
2017-07-08T04:41:11.761Z,50.87
2017-07-08T04:43:44.343Z,48.53
2017-07-08T04:46:16.591Z,48.57
2017-07-08T04:48:49.040Z,47.13
2017-07-08T04:51:21.820Z,46.50
2017-07-08T04:53:53.886Z,49.33
2017-07-08T04:56:26.241Z,45.70
2017-07-08T04:58:58.614Z,44.50
2017-07-08T05:01:30.879Z,46.50
2017-07-08T05:04:03.112Z,43.87
2017-07-08T05:06:36.501Z,45.03
2017-07-08T05:09:08.844Z,44.10
2017-07-08T05:11:41.284Z,43.63
2017-07-08T05:14:13.649Z,44.33
2017-07-08T05:16:46.084Z,39.50
2017-07-08T05:19:18.402Z,39.33
2017-07-08T05:21:50.892Z,39.43
2017-07-08T05:24:23.282Z,39.00
2017-07-08T05:26:55.919Z,39.67
2017-07-08T05:29:28.154Z,36.93
2017-07-08T05:32:00.585Z,37.90
2017-07-08T05:34:32.873Z,35.97
2017-07-08T05:37:05.376Z,37.43
2017-07-08T05:39:37.666Z,35.33
2017-07-08T05:42:10.108Z,35.00
2017-07-08T05:44:42.470Z,35.73
2017-07-08T05:47:14.907Z,34.40
2017-07-08T05:49:47.262Z,34.53
2017-07-08T05:52:19.837Z,33.90
2017-07-08T05:54:52.120Z,33.23
2017-07-08T05:57:24.531Z,34.23
2017-07-08T05:59:56.798Z,34.77
2017-07-08T06:02:29.318Z,31.97
2017-07-08T06:05:02.763Z,33.50
2017-07-08T06:07:35.144Z,32.20
2017-07-08T06:10:07.911Z,32.77
2017-07-08T06:12:40.028Z,31.53
2017-07-08T06:15:12.598Z,31.20
2017-07-08T06:17:45.461Z,30.50
2017-07-08T06:20:18.115Z,29.93
2017-07-08T06:22:50.504Z,28.60
2017-07-08T06:25:22.785Z,29.10
2017-07-08T06:27:56.152Z,29.23
2017-07-08T06:30:28.841Z,28.40
2017-07-08T06:33:01.288Z,27.20
2017-07-08T06:35:33.468Z,27.40
2017-07-08T06:38:05.860Z,27.43
2017-07-08T06:40:38.231Z,27.90
2017-07-08T06:43:10.615Z,25.70
2017-07-08T06:45:42.993Z,26.57
2017-07-08T06:48:15.704Z,27.10
2017-07-08T06:50:47.924Z,25.37
2017-07-08T06:53:20.386Z,25.50
2017-07-08T06:55:52.896Z,25.73
2017-07-08T06:58:25.420Z,25.30
2017-07-08T07:00:57.812Z,22.83
2017-07-08T07:03:30.206Z,25.80
2017-07-08T07:06:02.544Z,23.23
2017-07-08T07:08:35.173Z,23.57
2017-07-08T07:11:07.297Z,23.10
2017-07-08T07:13:39.833Z,22.37
2017-07-08T07:16:12.110Z,22.30
2017-07-08T07:18:44.469Z,21.67
2017-07-08T07:21:16.781Z,23.17
2017-07-08T07:23:49.103Z,21.40
2017-07-08T07:26:21.557Z,21.97
2017-07-08T07:28:53.972Z,22.37
2017-07-08T07:31:26.309Z,21.50
2017-07-08T07:33:58.821Z,20.73
2017-07-08T07:36:31.071Z,19.53
2017-07-08T07:39:03.600Z,15.20
2017-07-08T07:41:35.882Z,15.67
2017-07-08T07:44:08.329Z,15.93
2017-07-08T07:46:40.701Z,16.50
2017-07-08T07:49:13.060Z,15.50
2017-07-08T07:51:45.606Z,14.77
2017-07-08T07:54:17.833Z,14.47
2017-07-08T07:56:50.181Z,14.67
2017-07-08T07:59:23.350Z,14.60
2017-07-08T08:01:56.025Z,12.97
2017-07-08T08:04:28.468Z,13.20
2017-07-08T08:07:00.810Z,14.30
2017-07-08T08:09:33.293Z,13.40
2017-07-08T08:12:05.988Z,13.30
2017-07-08T08:14:38.061Z,12.20
2017-07-08T08:17:10.399Z,14.30
2017-07-08T08:19:42.865Z,13.27
2017-07-08T08:22:15.304Z,12.17
2017-07-08T08:24:47.894Z,12.10
2017-07-08T08:27:20.264Z,11.47
2017-07-08T08:29:52.747Z,11.47
2017-07-08T08:32:25.223Z,13.27
2017-07-08T08:34:57.549Z,11.80
2017-07-08T08:37:30.028Z,12.00
2017-07-08T08:40:02.432Z,13.70
2017-07-08T08:42:34.732Z,11.97
2017-07-08T08:45:07.094Z,11.03
2017-07-08T08:47:39.493Z,11.70
2017-07-08T08:50:12.869Z,12.30
2017-07-08T08:52:46.206Z,11.57
2017-07-08T08:55:18.775Z,10.60
2017-07-08T08:57:51.035Z,10.20
2017-07-08T09:00:24.601Z,8.40
2017-07-08T09:02:56.690Z,10.53
2017-07-08T09:05:29.162Z,7.43
2017-07-08T09:08:01.586Z,7.33
2017-07-08T09:10:34.077Z,7.57
2017-07-08T09:13:06.461Z,9.60
2017-07-08T09:15:38.868Z,10.33
2017-07-08T09:18:21.218Z,6.53
2017-07-08T09:20:53.746Z,5.60
2017-07-08T09:23:26.452Z,5.70
2017-07-08T09:25:58.393Z,5.17
2017-07-08T09:28:30.781Z,4.80
2017-07-08T09:31:03.335Z,5.33
2017-07-08T09:33:35.582Z,4.13
2017-07-08T09:36:07.987Z,4.20
2017-07-08T09:38:40.556Z,5.23
2017-07-08T09:41:13.330Z,4.93
2017-07-08T09:43:45.398Z,4.60
2017-07-08T09:46:17.797Z,4.17
2017-07-08T09:48:51.424Z,4.20
2017-07-08T09:51:24.404Z,4.33
2017-07-08T09:53:56.713Z,3.70
2017-07-08T09:56:36.305Z,4.30
2017-07-08T09:59:08.724Z,3.30
2017-07-08T10:01:41.144Z,3.43
2017-07-08T10:04:13.566Z,3.87
2017-07-08T10:06:45.880Z,3.97
2017-07-08T10:09:18.237Z,3.83
2017-07-08T10:11:51.658Z,3.20
2017-07-08T10:14:24.936Z,3.00
2017-07-08T10:16:57.714Z,2.30
2017-07-08T10:19:30.013Z,2.73
2017-07-08T10:22:02.971Z,2.07
2017-07-08T10:24:34.905Z,3.07
2017-07-08T10:27:07.872Z,2.80
2017-07-08T10:29:41.536Z,2.60
2017-07-08T10:32:15.212Z,2.80
2017-07-08T10:34:47.613Z,3.00
2017-07-08T10:37:19.988Z,3.00
2017-07-08T10:39:52.487Z,2.73
2017-07-08T10:42:25.240Z,3.63
2017-07-08T10:44:57.330Z,4.00
2017-07-08T10:47:29.707Z,3.93
2017-07-08T10:50:02.091Z,4.03
2017-07-08T10:52:34.543Z,4.13
2017-07-08T10:55:06.890Z,3.90
2017-07-08T10:57:39.279Z,3.47
2017-07-08T11:00:11.717Z,3.53
2017-07-08T11:02:44.206Z,3.90
2017-07-08T11:05:16.546Z,3.97
2017-07-08T11:07:48.906Z,3.83
2017-07-08T11:10:21.338Z,3.37
2017-07-08T11:12:54.234Z,4.20
2017-07-08T11:15:26.928Z,4.37
2017-07-08T11:18:00.133Z,4.30
2017-07-08T11:20:32.695Z,4.70
2017-07-08T11:23:05.111Z,3.90
2017-07-08T11:25:37.537Z,3.97
2017-07-08T11:28:10.033Z,4.40
2017-07-08T11:30:42.484Z,4.30
2017-07-08T11:33:14.877Z,4.17
2017-07-08T11:36:02.271Z,4.13
2017-07-08T11:38:34.828Z,4.10
2017-07-08T11:41:08.029Z,4.47
2017-07-08T11:43:41.112Z,4.97
2017-07-08T11:46:14.132Z,4.73
2017-07-08T11:48:46.304Z,5.37
2017-07-08T11:51:18.765Z,5.00
2017-07-08T11:53:51.314Z,5.20
2017-07-08T11:56:23.678Z,6.57
2017-07-08T11:58:55.943Z,6.23
2017-07-08T12:01:28.394Z,4.97
2017-07-08T12:04:00.909Z,4.67
2017-07-08T12:06:33.289Z,5.27
2017-07-08T12:09:05.628Z,4.97
2017-07-08T12:11:38.234Z,4.97
2017-07-08T12:14:10.477Z,5.30
2017-07-08T12:16:42.928Z,5.23
2017-07-08T12:19:15.409Z,4.90
2017-07-08T12:21:47.973Z,4.60
2017-07-08T12:24:20.477Z,4.23
2017-07-08T12:26:52.926Z,4.50
2017-07-08T12:29:25.784Z,5.23
2017-07-08T12:31:58.213Z,4.70
2017-07-08T12:34:31.380Z,4.03
2017-07-08T12:37:03.427Z,4.60
2017-07-08T12:39:35.918Z,4.90
2017-07-08T12:42:08.477Z,4.60
2017-07-08T12:44:40.994Z,4.43
2017-07-08T12:47:13.451Z,5.93
2017-07-08T12:49:45.966Z,6.03
2017-07-08T12:52:18.403Z,7.03
2017-07-08T12:54:50.809Z,6.70
2017-07-08T12:57:23.340Z,6.60
2017-07-08T12:59:55.804Z,6.80
2017-07-08T13:02:28.197Z,6.53
2017-07-08T13:05:00.633Z,7.00
2017-07-08T13:07:33.085Z,7.03
2017-07-08T13:10:05.376Z,6.47
2017-07-08T13:12:38.752Z,6.80
2017-07-08T13:15:12.290Z,6.07
2017-07-08T13:17:44.709Z,6.90
2017-07-08T13:20:17.067Z,6.23
2017-07-08T13:22:49.552Z,6.80
2017-07-08T13:25:21.994Z,6.20
2017-07-08T13:27:54.389Z,7.20
2017-07-08T13:30:26.795Z,7.73
2017-07-08T13:32:59.289Z,7.33
2017-07-08T13:35:31.743Z,9.17
2017-07-08T13:38:04.203Z,8.57
2017-07-08T13:40:36.780Z,9.43
2017-07-08T13:43:09.129Z,10.10
2017-07-08T13:45:41.602Z,9.47
2017-07-08T13:48:14.100Z,9.00
2017-07-08T13:50:46.354Z,8.07
2017-07-08T13:53:18.617Z,9.50
2017-07-08T13:55:51.192Z,8.90
2017-07-08T13:58:23.499Z,8.07
2017-07-08T14:00:55.914Z,7.60
2017-07-08T14:03:28.597Z,8.10
2017-07-08T14:06:01.629Z,9.33
2017-07-08T14:08:34.320Z,8.17
2017-07-08T14:11:06.707Z,8.63
2017-07-08T14:13:39.056Z,9.40
2017-07-08T14:16:11.799Z,8.53
2017-07-08T14:18:44.421Z,7.57
2017-07-08T14:21:16.779Z,8.03
2017-07-08T14:23:49.377Z,8.60
2017-07-08T14:26:21.572Z,8.70
2017-07-08T14:28:54.024Z,8.50
2017-07-08T14:31:26.526Z,7.03
2017-07-08T14:33:58.981Z,7.60
2017-07-08T14:36:31.376Z,9.37
2017-07-08T14:39:03.717Z,8.80
2017-07-08T14:41:36.210Z,9.90
2017-07-08T14:44:08.541Z,8.37
2017-07-08T14:46:40.892Z,9.03
2017-07-08T14:49:13.257Z,8.63
2017-07-08T14:51:45.509Z,9.23
2017-07-08T14:54:17.909Z,9.70
2017-07-08T14:56:50.253Z,9.43
2017-07-08T14:59:22.689Z,9.77
2017-07-08T15:01:55.483Z,9.57
2017-07-08T15:04:27.580Z,9.80
2017-07-08T15:07:00.073Z,11.20
2017-07-08T15:09:32.412Z,12.10
2017-07-08T15:12:04.885Z,10.43
2017-07-08T15:14:37.249Z,11.13
2017-07-08T15:17:09.732Z,10.70
2017-07-08T15:19:42.100Z,11.07
2017-07-08T15:22:14.664Z,10.50
2017-07-08T15:24:46.852Z,11.30
2017-07-08T15:27:19.300Z,10.20
2017-07-08T15:29:51.668Z,10.30
2017-07-08T15:32:25.054Z,9.40
2017-07-08T15:34:57.385Z,9.70
2017-07-08T15:37:30.084Z,9.17
2017-07-08T15:40:02.112Z,8.27
2017-07-08T15:42:34.562Z,8.53
2017-07-08T15:45:07.064Z,8.93
2017-07-08T15:47:39.441Z,9.17
2017-07-08T15:50:12.020Z,9.00
2017-07-08T15:52:44.525Z,10.47
2017-07-08T15:55:17.058Z,8.73
2017-07-08T15:57:49.364Z,8.40
2017-07-08T16:00:21.722Z,9.03
2017-07-08T16:02:54.110Z,8.50
2017-07-08T16:05:26.472Z,7.90
2017-07-08T16:07:59.970Z,9.90
2017-07-08T16:10:33.693Z,9.87
2017-07-08T16:13:05.739Z,9.80
2017-07-08T16:15:38.113Z,10.13
2017-07-08T16:18:10.596Z,9.80
2017-07-08T16:20:42.885Z,10.20
2017-07-08T16:23:16.307Z,10.37
2017-07-08T16:25:48.729Z,9.43
2017-07-08T16:28:21.079Z,8.73
2017-07-08T16:30:53.365Z,10.37
2017-07-08T16:33:25.762Z,9.13
2017-07-08T16:35:58.762Z,9.43
2017-07-08T16:38:31.504Z,9.23
2017-07-08T16:41:03.939Z,8.60
2017-07-08T16:43:36.441Z,8.03
2017-07-08T16:46:08.861Z,8.30
2017-07-08T16:48:41.342Z,7.93
2017-07-08T16:51:14.705Z,8.97
2017-07-08T16:53:47.412Z,9.47
2017-07-08T16:56:19.600Z,8.20
2017-07-08T16:58:51.949Z,7.63
2017-07-08T17:01:24.428Z,7.50
2017-07-08T17:03:56.908Z,8.67
2017-07-08T17:06:29.274Z,8.30
2017-07-08T17:09:01.743Z,9.23
2017-07-08T17:11:34.212Z,8.63
2017-07-08T17:14:06.632Z,8.33
2017-07-08T17:16:38.986Z,8.00
2017-07-08T17:19:11.339Z,7.50
2017-07-08T17:21:43.704Z,7.40
2017-07-08T17:24:16.973Z,8.00
2017-07-08T17:26:49.309Z,8.10
2017-07-08T17:29:22.833Z,7.30
2017-07-08T17:31:55.142Z,7.10
2017-07-08T17:34:27.533Z,7.27
2017-07-08T17:36:59.832Z,7.70
2017-07-08T17:39:32.214Z,7.27
2017-07-08T17:42:04.461Z,7.00
2017-07-08T17:44:36.849Z,6.77
2017-07-08T17:47:09.187Z,6.10
2017-07-08T17:49:41.656Z,5.90
2017-07-08T17:52:13.498Z,5.60
2017-07-08T17:54:46.297Z,6.20
2017-07-08T17:57:18.877Z,6.10
2017-07-08T17:59:50.760Z,6.53
2017-07-08T18:02:23.064Z,6.40
2017-07-08T18:04:55.451Z,6.87
2017-07-08T18:07:27.889Z,6.33
2017-07-08T18:10:01.477Z,6.50
2017-07-08T18:12:33.983Z,6.80
2017-07-08T18:15:07.119Z,6.57
2017-07-08T18:17:39.493Z,7.00
2017-07-08T18:20:11.881Z,7.20
2017-07-08T18:22:44.308Z,6.70
2017-07-08T18:25:16.824Z,6.93
2017-07-08T18:27:49.104Z,7.10
2017-07-08T18:30:22.569Z,7.30
2017-07-08T18:32:55.221Z,8.30
2017-07-08T18:35:29.325Z,8.47
2017-07-08T18:38:09.176Z,8.00
2017-07-08T18:40:41.533Z,8.20
2017-07-08T18:43:13.976Z,7.70
2017-07-08T18:45:46.476Z,7.73
2017-07-08T18:48:19.028Z,7.27
2017-07-08T18:50:54.860Z,7.10
2017-07-08T18:53:27.636Z,8.00
2017-07-08T18:56:00.296Z,7.40
2017-07-08T18:58:32.936Z,8.40
2017-07-08T19:01:05.021Z,7.40
2017-07-08T19:03:37.434Z,7.80
2017-07-08T19:06:10.300Z,7.67
2017-07-08T19:08:42.157Z,8.67
2017-07-08T19:11:14.742Z,8.10
2017-07-08T19:13:47.109Z,8.23
2017-07-08T19:16:19.581Z,7.97
2017-07-08T19:18:51.840Z,8.90
2017-07-08T19:21:24.092Z,10.13
2017-07-08T19:23:56.729Z,9.53
2017-07-08T19:26:30.011Z,9.27
2017-07-08T19:29:02.749Z,8.53
2017-07-08T19:31:35.039Z,9.20
2017-07-08T19:34:07.310Z,8.47
2017-07-08T19:36:39.827Z,8.80
2017-07-08T19:39:12.140Z,9.00
2017-07-08T19:41:44.635Z,9.93
2017-07-08T19:44:17.296Z,8.60
2017-07-08T19:46:49.469Z,8.43
2017-07-08T19:49:21.831Z,8.67
2017-07-08T19:51:55.236Z,8.57
2017-07-08T19:54:27.593Z,8.30
2017-07-08T19:57:00.080Z,9.27
2017-07-08T19:59:32.430Z,8.40
2017-07-08T20:02:04.908Z,7.40
2017-07-08T20:04:37.229Z,7.47
2017-07-08T20:07:09.605Z,8.13
2017-07-08T20:09:42.040Z,9.00
2017-07-08T20:12:14.453Z,7.93
2017-07-08T20:14:46.873Z,7.90
2017-07-08T20:17:19.246Z,8.80
2017-07-08T20:19:51.571Z,7.70
2017-07-08T20:22:23.960Z,7.73
2017-07-08T20:24:56.382Z,8.07
2017-07-08T20:27:29.178Z,7.63
2017-07-08T20:30:01.241Z,8.37
2017-07-08T20:32:40.749Z,7.47
2017-07-08T20:35:13.180Z,8.73
2017-07-08T20:37:45.558Z,8.50
2017-07-08T20:40:17.892Z,8.57
2017-07-08T20:42:50.365Z,8.70
2017-07-08T20:45:22.765Z,8.20
2017-07-08T20:47:55.522Z,8.80
2017-07-08T20:50:27.588Z,7.60
2017-07-08T20:53:00.368Z,8.40
2017-07-08T20:55:32.360Z,8.20
2017-07-08T20:58:04.788Z,8.43
2017-07-08T21:00:37.077Z,8.50
2017-07-08T21:03:09.497Z,8.60
2017-07-08T21:05:42.005Z,7.83
2017-07-08T21:08:15.417Z,8.40
2017-07-08T21:10:47.721Z,8.70
2017-07-08T21:13:20.196Z,8.50
2017-07-08T21:15:52.653Z,8.07
2017-07-08T21:18:25.160Z,7.67
2017-07-08T21:20:57.608Z,8.00
2017-07-08T21:23:29.977Z,8.87
2017-07-08T21:26:02.280Z,8.97
2017-07-08T21:28:34.765Z,7.67
2017-07-08T21:31:07.278Z,9.27
2017-07-08T21:33:39.440Z,7.73
2017-07-08T21:36:11.857Z,8.30
2017-07-08T21:38:44.288Z,7.13
2017-07-08T21:41:16.658Z,7.03
2017-07-08T21:43:49.041Z,7.70
2017-07-08T21:46:21.397Z,7.70
2017-07-08T21:48:53.733Z,7.63
2017-07-08T21:51:26.224Z,7.60
2017-07-08T21:53:58.587Z,7.50
2017-07-08T21:56:30.925Z,7.23
2017-07-08T21:59:03.344Z,7.77
2017-07-08T22:01:36.001Z,7.53
2017-07-08T22:04:08.077Z,7.70
2017-07-08T22:06:40.573Z,8.03
2017-07-08T22:09:12.874Z,6.93
2017-07-08T22:11:45.295Z,7.33
2017-07-08T22:14:17.701Z,7.10
2017-07-08T22:16:50.162Z,7.70
2017-07-08T22:19:22.417Z,7.17
2017-07-08T22:21:54.755Z,7.40
2017-07-08T22:24:27.193Z,7.00
2017-07-08T22:26:59.433Z,7.27
2017-07-08T22:29:31.832Z,6.67
2017-07-08T22:32:04.376Z,6.50
2017-07-08T22:34:36.869Z,6.23
2017-07-08T22:37:09.164Z,6.20
2017-07-08T22:39:41.609Z,6.40
2017-07-08T22:42:13.986Z,5.83
2017-07-08T22:44:46.501Z,5.37
2017-07-08T22:47:18.869Z,5.83
2017-07-08T22:49:51.252Z,5.80
2017-07-08T22:52:24.430Z,5.70
2017-07-08T22:54:57.184Z,6.10
2017-07-08T22:57:29.446Z,6.80
2017-07-08T23:00:01.821Z,6.17
2017-07-08T23:02:34.228Z,6.60
2017-07-08T23:05:06.394Z,6.07
2017-07-08T23:07:38.530Z,6.07
2017-07-08T23:10:10.926Z,6.30
2017-07-08T23:12:44.257Z,5.70
2017-07-08T23:15:16.577Z,5.90
2017-07-08T23:17:49.546Z,6.50
2017-07-08T23:20:21.832Z,6.83
2017-07-08T23:22:53.924Z,6.30
2017-07-08T23:25:26.246Z,6.03
2017-07-08T23:27:58.445Z,5.87
2017-07-08T23:30:30.918Z,5.90
2017-07-08T23:33:03.400Z,6.10
2017-07-08T23:35:35.829Z,5.93
2017-07-08T23:38:08.232Z,5.57
2017-07-08T23:40:40.662Z,5.50
2017-07-08T23:43:13.298Z,5.87
2017-07-08T23:45:46.508Z,5.93
2017-07-08T23:48:18.973Z,5.53
2017-07-08T23:50:51.445Z,5.50
2017-07-08T23:53:23.837Z,5.47
2017-07-08T23:55:56.314Z,5.87
2017-07-08T23:58:28.674Z,6.37
